createdAt,value
2017-10-15T00:00:43.724Z,7.00
2017-10-15T00:03:12.742Z,7.23
2017-10-15T00:05:41.038Z,6.13
2017-10-15T00:08:09.332Z,5.77
2017-10-15T00:10:37.593Z,6.40
2017-10-15T00:13:05.846Z,7.17
2017-10-15T00:15:34.872Z,8.00
2017-10-15T00:18:03.155Z,7.57
2017-10-15T00:20:31.417Z,6.90
2017-10-15T00:22:59.658Z,6.70
2017-10-15T00:25:29.467Z,7.27
2017-10-15T00:27:57.707Z,6.57
2017-10-15T00:30:25.994Z,7.13
2017-10-15T00:32:54.294Z,6.80
2017-10-15T00:35:22.554Z,7.23
2017-10-15T00:37:50.803Z,6.47
2017-10-15T00:40:19.833Z,6.20
2017-10-15T00:42:48.070Z,5.40
2017-10-15T00:45:17.100Z,6.37
2017-10-15T00:47:45.329Z,5.40
2017-10-15T00:50:13.590Z,5.53
2017-10-15T00:52:41.826Z,5.70
2017-10-15T00:55:10.084Z,4.90
2017-10-15T00:57:38.318Z,5.23
2017-10-15T01:00:06.587Z,6.37
2017-10-15T01:02:34.828Z,4.93
2017-10-15T01:05:03.854Z,5.80
2017-10-15T01:07:32.090Z,6.20
2017-10-15T01:10:00.396Z,5.30
2017-10-15T01:12:29.426Z,5.37
2017-10-15T01:14:57.723Z,6.30
2017-10-15T01:17:25.988Z,6.20
2017-10-15T01:19:54.276Z,7.93
2017-10-15T01:22:22.539Z,7.30
2017-10-15T01:24:50.778Z,6.27
2017-10-15T01:27:19.034Z,5.97
2017-10-15T01:29:47.296Z,7.00
2017-10-15T01:32:15.582Z,6.70
2017-10-15T01:34:43.854Z,7.17
2017-10-15T01:37:12.956Z,6.70
2017-10-15T01:39:41.241Z,6.67
2017-10-15T01:42:09.525Z,6.40
2017-10-15T01:44:37.766Z,5.67
2017-10-15T01:47:06.798Z,5.77
2017-10-15T01:49:35.092Z,6.13
2017-10-15T01:52:03.373Z,6.00
2017-10-15T01:54:31.606Z,5.97
2017-10-15T01:57:00.644Z,5.93
2017-10-15T01:59:28.884Z,6.30
2017-10-15T02:01:57.928Z,5.30
2017-10-15T02:04:26.207Z,5.70
2017-10-15T02:06:54.498Z,5.20
2017-10-15T02:09:22.740Z,4.90
2017-10-15T02:11:51.770Z,5.77
2017-10-15T02:14:20.957Z,5.13
2017-10-15T02:16:49.257Z,4.27
2017-10-15T02:19:17.492Z,5.30
2017-10-15T02:21:46.521Z,4.83
2017-10-15T02:24:14.778Z,5.53
2017-10-15T02:26:44.427Z,5.43
2017-10-15T02:29:12.703Z,5.77
2017-10-15T02:31:40.944Z,5.70
2017-10-15T02:34:09.970Z,5.80
2017-10-15T02:36:38.228Z,5.20
2017-10-15T02:39:07.251Z,5.20
2017-10-15T02:41:35.514Z,5.40
2017-10-15T02:44:05.460Z,5.73
2017-10-15T02:46:33.711Z,4.97
2017-10-15T02:49:02.733Z,5.77
2017-10-15T02:51:31.027Z,5.97
2017-10-15T02:53:59.302Z,6.10
2017-10-15T02:56:27.552Z,5.23
2017-10-15T02:58:56.568Z,5.90
2017-10-15T03:01:24.806Z,5.40
2017-10-15T03:03:54.650Z,5.30
2017-10-15T03:06:22.953Z,5.80
2017-10-15T03:08:51.210Z,5.63
2017-10-15T03:11:19.463Z,5.50
2017-10-15T03:13:47.890Z,6.30
2017-10-15T03:16:16.139Z,6.00
2017-10-15T03:18:44.395Z,5.57
2017-10-15T03:21:21.277Z,5.53
2017-10-15T03:23:49.843Z,5.47
2017-10-15T03:26:18.087Z,6.40
2017-10-15T03:28:47.115Z,5.90
2017-10-15T03:31:15.359Z,5.57
2017-10-15T03:33:44.386Z,6.30
2017-10-15T03:36:12.679Z,7.00
2017-10-15T03:38:40.939Z,5.90
2017-10-15T03:41:09.178Z,6.63
2017-10-15T03:43:37.632Z,5.60
2017-10-15T03:46:05.910Z,6.20
2017-10-15T03:48:34.163Z,6.90
2017-10-15T03:51:02.476Z,7.43
2017-10-15T03:53:30.750Z,8.20
2017-10-15T03:55:59.030Z,8.63
2017-10-15T03:58:27.291Z,7.33
2017-10-15T04:00:55.554Z,7.40
2017-10-15T04:03:24.579Z,8.33
2017-10-15T04:05:52.838Z,6.63
2017-10-15T04:08:21.864Z,7.23
2017-10-15T04:10:50.118Z,6.63
2017-10-15T04:13:19.210Z,7.47
2017-10-15T04:15:48.552Z,7.03
2017-10-15T04:18:16.782Z,7.03
2017-10-15T04:20:45.034Z,6.33
2017-10-15T04:23:13.294Z,7.47
2017-10-15T04:25:41.590Z,6.40
2017-10-15T04:28:09.850Z,6.43
2017-10-15T04:30:38.119Z,6.90
2017-10-15T04:33:07.134Z,6.40
2017-10-15T04:35:35.387Z,7.73
2017-10-15T04:38:04.438Z,7.87
2017-10-15T04:40:33.640Z,6.90
2017-10-15T04:43:01.903Z,6.73
2017-10-15T04:45:30.213Z,6.53
2017-10-15T04:47:58.455Z,5.90
2017-10-15T04:50:26.763Z,6.37
2017-10-15T04:52:55.015Z,7.70
2017-10-15T04:55:23.336Z,5.93
2017-10-15T04:57:51.606Z,6.20
2017-10-15T05:00:19.888Z,6.00
2017-10-15T05:02:48.176Z,6.67
2017-10-15T05:05:16.450Z,7.20
2017-10-15T05:07:44.726Z,5.73
2017-10-15T05:10:12.984Z,5.73
2017-10-15T05:12:41.251Z,6.50
2017-10-15T05:15:10.271Z,6.40
2017-10-15T05:17:38.543Z,6.93
2017-10-15T05:20:06.796Z,5.87
2017-10-15T05:22:35.131Z,6.53
2017-10-15T05:25:03.390Z,6.50
2017-10-15T05:27:31.687Z,5.03
2017-10-15T05:29:59.941Z,6.23
2017-10-15T05:32:28.980Z,6.60
2017-10-15T05:34:57.213Z,6.50
2017-10-15T05:37:26.294Z,5.50
2017-10-15T05:39:55.352Z,5.37
2017-10-15T05:42:23.626Z,5.83
2017-10-15T05:44:51.912Z,5.40
2017-10-15T05:47:20.217Z,5.23
2017-10-15T05:49:48.442Z,5.83
2017-10-15T05:52:17.486Z,5.50
2017-10-15T05:54:45.729Z,6.50
2017-10-15T05:57:14.767Z,6.77
2017-10-15T05:59:43.039Z,6.17
2017-10-15T06:02:11.287Z,6.20
2017-10-15T06:04:40.330Z,5.50
2017-10-15T06:07:09.340Z,5.17
2017-10-15T06:09:37.619Z,6.00
2017-10-15T06:12:05.862Z,6.60
2017-10-15T06:14:34.887Z,5.47
2017-10-15T06:17:03.122Z,6.10
2017-10-15T06:19:32.253Z,6.20
2017-10-15T06:22:00.498Z,6.13
2017-10-15T06:24:29.546Z,6.40
2017-10-15T06:26:57.783Z,6.60
2017-10-15T06:29:26.806Z,5.83
2017-10-15T06:31:55.058Z,6.13
2017-10-15T06:34:24.095Z,6.67
2017-10-15T06:36:52.544Z,6.10
2017-10-15T06:39:21.029Z,6.60
2017-10-15T06:41:49.410Z,6.50
2017-10-15T06:44:17.770Z,7.40
2017-10-15T06:46:46.263Z,6.23
2017-10-15T06:49:14.956Z,6.33
2017-10-15T06:51:43.439Z,6.00
2017-10-15T06:54:11.924Z,6.10
2017-10-15T06:56:40.232Z,6.73
2017-10-15T06:59:08.575Z,7.27
2017-10-15T07:01:36.833Z,7.87
2017-10-15T07:04:05.090Z,8.90
2017-10-15T07:06:33.356Z,8.93
2017-10-15T07:09:02.491Z,8.37
2017-10-15T07:11:30.743Z,8.47
2017-10-15T07:13:59.064Z,8.90
2017-10-15T07:16:27.318Z,9.70
2017-10-15T07:18:55.577Z,10.70
2017-10-15T07:21:24.614Z,9.30
2017-10-15T07:23:52.899Z,10.57
2017-10-15T07:26:21.167Z,10.27
2017-10-15T07:28:49.476Z,11.20
2017-10-15T07:31:17.759Z,10.80
2017-10-15T07:33:46.023Z,11.70
2017-10-15T07:36:14.303Z,12.40
2017-10-15T07:38:42.550Z,13.83
2017-10-15T07:41:10.824Z,10.80
2017-10-15T07:43:39.846Z,12.03
2017-10-15T07:46:08.144Z,12.03
2017-10-15T07:48:36.431Z,9.40
2017-10-15T07:51:04.695Z,10.90
2017-10-15T07:53:32.943Z,10.70
2017-10-15T07:56:02.007Z,10.33
2017-10-15T07:58:30.255Z,9.80
2017-10-15T08:00:58.514Z,9.40
2017-10-15T08:03:27.543Z,10.53
2017-10-15T08:05:55.811Z,11.50
2017-10-15T08:08:24.117Z,8.97
2017-10-15T08:10:52.393Z,10.70
2017-10-15T08:13:20.674Z,11.03
2017-10-15T08:15:48.959Z,10.43
2017-10-15T08:18:17.206Z,9.90
2017-10-15T08:20:45.486Z,10.70
2017-10-15T08:23:14.802Z,11.13
2017-10-15T08:25:43.115Z,11.37
2017-10-15T08:28:11.454Z,11.17
2017-10-15T08:30:39.770Z,12.20
2017-10-15T08:33:08.149Z,12.60
2017-10-15T08:35:36.425Z,10.70
2017-10-15T08:38:05.519Z,11.43
2017-10-15T08:40:34.718Z,11.97
2017-10-15T08:43:03.774Z,13.57
2017-10-15T08:45:32.088Z,12.03
2017-10-15T08:48:01.147Z,12.30
2017-10-15T08:50:30.241Z,11.83
2017-10-15T08:52:58.555Z,12.60
2017-10-15T08:55:26.834Z,11.43
2017-10-15T08:57:55.167Z,12.60
2017-10-15T09:00:23.605Z,14.03
2017-10-15T09:02:53.213Z,13.57
2017-10-15T09:05:21.574Z,12.80
2017-10-15T09:07:49.980Z,13.50
2017-10-15T09:10:18.330Z,14.67
2017-10-15T09:12:46.708Z,14.10
2017-10-15T09:15:14.988Z,13.60
2017-10-15T09:17:43.323Z,19.47
2017-10-15T09:20:11.794Z,19.60
2017-10-15T09:22:40.222Z,19.93
2017-10-15T09:25:09.276Z,18.23
2017-10-15T09:27:41.135Z,21.70
2017-10-15T09:30:09.453Z,19.63
2017-10-15T09:32:38.549Z,19.33
2017-10-15T09:35:07.643Z,25.37
2017-10-15T09:37:36.841Z,21.73
2017-10-15T09:40:05.220Z,22.63
2017-10-15T09:42:33.496Z,21.00
2017-10-15T09:45:01.874Z,19.87
2017-10-15T09:47:30.149Z,20.90
2017-10-15T09:49:58.690Z,24.57
2017-10-15T09:52:26.968Z,22.23
2017-10-15T09:54:55.390Z,22.43
2017-10-15T09:57:23.664Z,21.43
2017-10-15T09:59:52.042Z,21.93
2017-10-15T10:02:20.318Z,22.50
2017-10-15T10:04:48.799Z,24.37
2017-10-15T10:07:17.075Z,20.37
2017-10-15T10:09:45.597Z,20.70
2017-10-15T10:12:13.892Z,21.67
2017-10-15T10:14:42.150Z,19.70
2017-10-15T10:17:10.400Z,20.83
2017-10-15T10:19:38.674Z,19.00
2017-10-15T10:22:06.938Z,19.53
2017-10-15T10:24:35.225Z,21.57
2017-10-15T10:27:03.476Z,19.70
2017-10-15T10:29:32.550Z,19.43
2017-10-15T10:32:00.818Z,19.17
2017-10-15T10:34:29.112Z,19.40
2017-10-15T10:36:57.380Z,20.60
2017-10-15T10:39:25.655Z,21.77
2017-10-15T10:41:53.945Z,21.17
2017-10-15T10:44:22.195Z,21.80
2017-10-15T10:46:50.460Z,20.77
2017-10-15T10:49:19.474Z,20.90
2017-10-15T10:51:47.746Z,22.80
2017-10-15T10:54:16.764Z,24.93
2017-10-15T10:56:45.029Z,27.00
2017-10-15T10:59:14.070Z,24.43
2017-10-15T11:01:42.340Z,26.20
2017-10-15T11:04:10.597Z,25.73
2017-10-15T11:06:39.630Z,26.80
2017-10-15T11:09:07.879Z,27.00
2017-10-15T11:11:36.195Z,27.80
2017-10-15T11:14:04.447Z,28.13
2017-10-15T11:16:32.750Z,25.00
2017-10-15T11:19:00.998Z,26.60
2017-10-15T11:21:30.030Z,25.87
2017-10-15T11:23:58.328Z,27.27
2017-10-15T11:26:26.595Z,28.37
2017-10-15T11:28:54.872Z,27.40
2017-10-15T11:31:23.140Z,26.70
2017-10-15T11:33:51.375Z,29.93
2017-10-15T11:36:20.355Z,29.57
2017-10-15T11:38:48.607Z,27.40
2017-10-15T11:41:16.872Z,26.77
2017-10-15T11:43:45.121Z,25.37
2017-10-15T11:46:13.445Z,26.80
2017-10-15T11:48:41.746Z,23.77
2017-10-15T11:51:10.763Z,23.17
2017-10-15T11:53:39.039Z,24.70
2017-10-15T11:56:07.306Z,25.53
2017-10-15T11:58:35.619Z,24.40
2017-10-15T12:01:04.034Z,23.07
2017-10-15T12:03:33.051Z,23.70
2017-10-15T12:06:01.325Z,24.33
2017-10-15T12:08:30.333Z,23.00
2017-10-15T12:10:58.616Z,22.23
2017-10-15T12:13:26.911Z,21.37
2017-10-15T12:15:55.164Z,23.03
2017-10-15T12:18:24.214Z,22.63
2017-10-15T12:20:52.485Z,25.80
2017-10-15T12:23:20.751Z,26.43
2017-10-15T12:25:49.650Z,25.77
2017-10-15T12:28:17.923Z,26.57
2017-10-15T12:30:46.178Z,27.87
2017-10-15T12:33:15.215Z,28.97
2017-10-15T12:35:43.494Z,29.80
2017-10-15T12:38:11.784Z,26.00
2017-10-15T12:40:40.627Z,25.00
2017-10-15T12:43:09.665Z,27.53
2017-10-15T12:45:37.911Z,29.17
2017-10-15T12:48:07.054Z,27.90
2017-10-15T12:50:35.332Z,29.13
2017-10-15T12:53:03.606Z,27.83
2017-10-15T12:55:31.906Z,27.97
2017-10-15T12:58:00.178Z,27.27
2017-10-15T13:00:28.475Z,26.43
2017-10-15T13:02:56.735Z,27.73
2017-10-15T13:05:25.030Z,26.80
2017-10-15T13:07:53.299Z,28.00
2017-10-15T13:10:21.552Z,28.20
2017-10-15T13:12:50.683Z,26.47
2017-10-15T13:15:18.950Z,25.87
2017-10-15T13:17:47.264Z,27.80
2017-10-15T13:20:15.532Z,28.77
2017-10-15T13:22:43.790Z,27.40
2017-10-15T13:25:12.072Z,28.77
2017-10-15T13:27:41.090Z,27.23
2017-10-15T13:30:09.389Z,27.97
2017-10-15T13:32:37.668Z,27.27
2017-10-15T13:35:05.931Z,25.70
2017-10-15T13:37:34.264Z,27.70
2017-10-15T13:40:04.034Z,28.27
2017-10-15T13:42:32.343Z,28.30
2017-10-15T13:45:00.610Z,28.53
2017-10-15T13:47:28.894Z,27.83
2017-10-15T13:49:57.211Z,27.50
2017-10-15T13:52:25.444Z,25.90
2017-10-15T13:54:54.083Z,26.27
2017-10-15T13:57:22.671Z,27.10
2017-10-15T13:59:50.947Z,28.80
2017-10-15T14:02:19.196Z,27.83
2017-10-15T14:04:47.456Z,28.80
2017-10-15T14:07:15.732Z,27.80
2017-10-15T14:09:43.996Z,24.40
2017-10-15T14:12:13.011Z,25.90
2017-10-15T14:14:41.286Z,28.40
2017-10-15T14:17:10.297Z,30.77
2017-10-15T14:19:38.549Z,30.70
2017-10-15T14:22:07.583Z,29.63
2017-10-15T14:24:35.839Z,31.17
2017-10-15T14:27:04.231Z,27.97
2017-10-15T14:29:32.474Z,31.70
2017-10-15T14:32:00.736Z,29.13
2017-10-15T14:34:29.035Z,28.80
2017-10-15T14:36:57.298Z,26.53
2017-10-15T14:39:25.572Z,28.50
2017-10-15T14:41:53.838Z,28.47
2017-10-15T14:44:22.099Z,29.37
2017-10-15T14:46:50.368Z,32.90
2017-10-15T14:49:19.387Z,32.30
2017-10-15T14:51:47.703Z,30.50
2017-10-15T14:54:15.942Z,31.37
2017-10-15T14:56:44.210Z,27.93
2017-10-15T14:59:12.529Z,29.73
2017-10-15T15:01:40.796Z,28.83
2017-10-15T15:04:09.056Z,30.20
2017-10-15T15:06:37.325Z,29.20
2017-10-15T15:09:06.351Z,31.20
2017-10-15T15:11:34.922Z,31.73
2017-10-15T15:14:03.940Z,27.83
2017-10-15T15:16:32.244Z,26.90
2017-10-15T15:19:00.504Z,27.40
2017-10-15T15:21:28.786Z,25.87
2017-10-15T15:23:57.088Z,26.60
2017-10-15T15:26:25.366Z,23.63
2017-10-15T15:28:53.627Z,27.30
2017-10-15T15:31:21.939Z,35.73
2017-10-15T15:33:50.193Z,31.20
2017-10-15T15:36:18.450Z,32.07
2017-10-15T15:38:47.487Z,27.80
2017-10-15T15:41:15.775Z,28.77
2017-10-15T15:43:44.059Z,29.97
2017-10-15T15:46:12.346Z,28.10
2017-10-15T15:48:40.615Z,27.27
2017-10-15T15:51:08.898Z,26.47
2017-10-15T15:53:38.102Z,28.17
2017-10-15T15:56:06.361Z,29.30
2017-10-15T15:58:34.628Z,28.37
2017-10-15T16:01:03.677Z,27.10
2017-10-15T16:03:31.935Z,29.43
2017-10-15T16:06:00.183Z,26.57
2017-10-15T16:08:29.228Z,27.53
2017-10-15T16:10:57.475Z,26.77
2017-10-15T16:13:25.754Z,27.40
2017-10-15T16:15:54.002Z,25.70
2017-10-15T16:18:22.348Z,25.70
2017-10-15T16:20:50.613Z,27.20
2017-10-15T16:23:18.892Z,27.17
2017-10-15T16:25:47.212Z,27.00
2017-10-15T16:28:15.493Z,31.00
2017-10-15T16:30:43.726Z,33.23
2017-10-15T16:33:12.040Z,33.97
2017-10-15T16:35:41.219Z,32.40
2017-10-15T16:38:15.035Z,30.53
2017-10-15T16:40:45.492Z,30.50
2017-10-15T16:43:13.915Z,30.73
2017-10-15T16:45:42.963Z,29.27
2017-10-15T16:48:11.246Z,26.57
2017-10-15T16:50:39.515Z,27.27
2017-10-15T16:53:07.773Z,27.00
2017-10-15T16:55:38.851Z,27.83
2017-10-15T16:58:07.110Z,29.17
2017-10-15T17:00:35.382Z,29.87
2017-10-15T17:03:04.410Z,31.03
2017-10-15T17:05:32.681Z,41.60
2017-10-15T17:08:01.740Z,29.30
2017-10-15T17:10:30.083Z,29.90
2017-10-15T17:12:58.367Z,27.40
2017-10-15T17:15:26.652Z,28.20
2017-10-15T17:17:54.894Z,28.93
2017-10-15T17:20:23.932Z,27.73
2017-10-15T17:22:52.190Z,29.30
2017-10-15T17:25:20.541Z,31.47
2017-10-15T17:27:49.564Z,32.30
2017-10-15T17:30:17.863Z,29.83
2017-10-15T17:32:46.123Z,31.00
2017-10-15T17:35:14.395Z,31.77
2017-10-15T17:37:42.817Z,29.40
2017-10-15T17:40:11.063Z,30.10
2017-10-15T17:42:39.313Z,29.80
2017-10-15T17:45:07.701Z,28.93
2017-10-15T17:47:36.058Z,29.57
2017-10-15T17:50:04.320Z,29.77
2017-10-15T17:52:32.567Z,33.83
2017-10-15T17:55:01.610Z,47.40
2017-10-15T17:57:29.860Z,70.00
2017-10-15T17:59:58.334Z,63.60
2017-10-15T18:02:30.544Z,148.13
2017-10-15T18:04:58.838Z,175.97
2017-10-15T18:07:27.099Z,56.30
2017-10-15T18:09:55.339Z,45.17
2017-10-15T18:12:24.394Z,46.47
2017-10-15T18:14:52.640Z,41.57
2017-10-15T18:17:20.906Z,39.07
2017-10-15T18:19:49.934Z,38.00
2017-10-15T18:22:18.192Z,36.63
2017-10-15T18:24:46.594Z,35.87
2017-10-15T18:27:14.867Z,38.57
2017-10-15T18:29:43.175Z,35.20
2017-10-15T18:32:11.550Z,36.47
2017-10-15T18:34:39.802Z,33.90
2017-10-15T18:37:08.062Z,32.90
2017-10-15T18:39:37.080Z,36.73
2017-10-15T18:42:05.387Z,34.90
2017-10-15T18:44:33.638Z,36.37
2017-10-15T18:47:01.906Z,32.77
2017-10-15T18:49:30.926Z,33.40
2017-10-15T18:51:59.232Z,33.37
2017-10-15T18:54:27.503Z,30.60
2017-10-15T18:56:55.773Z,31.83
2017-10-15T18:59:24.024Z,31.80
2017-10-15T19:01:54.261Z,32.10
2017-10-15T19:04:23.279Z,31.03
2017-10-15T19:06:51.554Z,33.23
2017-10-15T19:09:19.802Z,32.23
2017-10-15T19:11:48.054Z,32.07
2017-10-15T19:14:16.314Z,30.20
2017-10-15T19:16:44.591Z,31.53
2017-10-15T19:19:12.963Z,32.53
2017-10-15T19:21:41.215Z,35.10
2017-10-15T19:24:10.294Z,31.20
2017-10-15T19:26:38.518Z,32.30
2017-10-15T19:29:06.790Z,32.07
2017-10-15T19:31:35.830Z,31.70
2017-10-15T19:34:04.100Z,31.07
2017-10-15T19:36:32.376Z,32.87
2017-10-15T19:39:00.644Z,32.20
2017-10-15T19:41:28.895Z,33.07
2017-10-15T19:43:57.186Z,32.73
2017-10-15T19:46:26.208Z,32.13
2017-10-15T19:48:54.512Z,32.70
2017-10-15T19:51:22.783Z,32.90
2017-10-15T19:53:51.066Z,32.63
2017-10-15T19:56:19.368Z,32.90
2017-10-15T19:58:47.900Z,31.83
2017-10-15T20:01:16.918Z,32.50
2017-10-15T20:03:45.203Z,31.80
2017-10-15T20:06:14.226Z,30.10
2017-10-15T20:08:42.506Z,31.83
2017-10-15T20:11:10.815Z,32.47
2017-10-15T20:13:39.172Z,31.27
2017-10-15T20:16:07.427Z,31.70
2017-10-15T20:18:35.719Z,32.77
2017-10-15T20:21:03.963Z,31.13
2017-10-15T20:23:32.251Z,31.33
2017-10-15T20:26:00.506Z,29.30
2017-10-15T20:28:28.763Z,30.43
2017-10-15T20:30:57.070Z,29.77
2017-10-15T20:33:25.313Z,30.50
2017-10-15T20:35:53.610Z,30.37
2017-10-15T20:38:21.869Z,33.13
2017-10-15T20:40:50.139Z,29.47
2017-10-15T20:43:19.192Z,31.23
2017-10-15T20:45:47.555Z,30.93
2017-10-15T20:48:15.807Z,33.47
2017-10-15T20:50:44.942Z,31.40
2017-10-15T20:53:13.191Z,29.97
2017-10-15T20:55:41.503Z,31.00
2017-10-15T20:58:09.750Z,31.53
2017-10-15T21:00:38.792Z,30.37
2017-10-15T21:03:07.055Z,28.10
2017-10-15T21:05:35.331Z,30.20
2017-10-15T21:08:03.594Z,29.37
2017-10-15T21:10:32.614Z,30.60
2017-10-15T21:13:00.868Z,31.27
2017-10-15T21:15:29.914Z,29.73
2017-10-15T21:17:58.182Z,29.83
2017-10-15T21:20:26.464Z,30.00
2017-10-15T21:22:54.712Z,30.27
2017-10-15T21:25:23.859Z,31.47
2017-10-15T21:27:52.119Z,30.10
2017-10-15T21:30:20.382Z,29.67
2017-10-15T21:32:48.639Z,30.47
2017-10-15T21:35:16.898Z,30.07
2017-10-15T21:37:45.246Z,30.20
2017-10-15T21:40:13.513Z,27.80
2017-10-15T21:42:41.766Z,30.23
2017-10-15T21:45:10.795Z,31.67
2017-10-15T21:47:39.046Z,28.70
2017-10-15T21:50:08.108Z,29.10
2017-10-15T21:52:36.379Z,28.73
2017-10-15T21:55:04.766Z,27.90
2017-10-15T21:57:33.140Z,27.20
2017-10-15T22:00:01.396Z,27.07
2017-10-15T22:02:29.658Z,29.20
2017-10-15T22:04:58.757Z,28.23
2017-10-15T22:07:27.806Z,27.53
2017-10-15T22:09:56.065Z,27.30
2017-10-15T22:12:24.369Z,28.00
2017-10-15T22:14:52.775Z,25.70
2017-10-15T22:17:21.143Z,26.97
2017-10-15T22:19:49.501Z,26.40
2017-10-15T22:22:23.406Z,27.50
2017-10-15T22:24:51.658Z,25.43
2017-10-15T22:27:19.927Z,25.90
2017-10-15T22:29:48.182Z,26.43
2017-10-15T22:32:16.558Z,24.27
2017-10-15T22:34:44.846Z,27.20
2017-10-15T22:37:13.107Z,26.27
2017-10-15T22:39:41.415Z,26.93
2017-10-15T22:42:09.683Z,25.50
2017-10-15T22:44:37.935Z,25.67
2017-10-15T22:47:07.005Z,25.00
2017-10-15T22:49:35.264Z,23.50
2017-10-15T22:52:03.515Z,24.97
2017-10-15T22:54:31.819Z,25.13
2017-10-15T22:57:00.132Z,23.20
2017-10-15T22:59:28.370Z,24.33
2017-10-15T23:01:57.474Z,24.10
2017-10-15T23:04:25.756Z,24.80
2017-10-15T23:06:54.046Z,28.97
2017-10-15T23:09:22.429Z,26.70
2017-10-15T23:11:50.847Z,25.60
2017-10-15T23:14:19.120Z,22.30
2017-10-15T23:16:47.471Z,21.57
2017-10-15T23:19:15.746Z,22.97
2017-10-15T23:21:44.036Z,23.40
2017-10-15T23:24:12.304Z,24.20
2017-10-15T23:26:40.547Z,26.50
2017-10-15T23:29:09.670Z,23.33
2017-10-15T23:31:37.923Z,26.23
2017-10-15T23:34:06.972Z,25.27
2017-10-15T23:36:35.213Z,24.47
2017-10-15T23:39:04.246Z,21.00
2017-10-15T23:41:32.504Z,20.93
2017-10-15T23:44:01.531Z,20.07
2017-10-15T23:46:29.790Z,20.40
2017-10-15T23:48:58.098Z,18.80
2017-10-15T23:51:26.352Z,19.10
2017-10-15T23:53:54.626Z,19.13
2017-10-15T23:56:22.932Z,18.17
2017-10-15T23:58:51.218Z,20.00
